Decoded Metar for KSAT (SAN ANTONIO in TX, USA) (IATA:SAT) | Meteo·Mobile Aviation Weather
aviador You're here:

KSAT Decoded Metar

SAN ANTONIO in TX, USA
Report Time2018-12-13 02:51:00
UTC Time2018-12-13 03:31:25
Flight Rules vfr VFR
WindCalm
Visibility9999 m
Phenomena:N/A
Clouds:Broken 160 Hf
Overcast 250 Hf
Expected CloudBase > 400 ft AGL from Temp-Dew spread
Ceiling16,000 ft
Temp12°C (ISA -1)
Dew Point11°C (94% RH)
QNH1012 hPa
Density Alt843 ft
Elevation797 ft
Report Wrong Elevation
Raw Report
KSAT 130251Z 00000KT 10SM BKN160 OVC250 12/11 A2988 RMK AO2 SLP106
T01220111 58003=

Extra information for KSAT:More info

Metar Taf Metar & Taf Last 4 Metars F.Rules Stats Wind Profile Meteogram Temp Stats Airport Information Weather charts Add Link Nearby VenuesMetar ALERT Operation Metar Decoded Social comments

AIRNAV info for KSAT